Time;durP1;ratioP1;P1;durP2;ratioP2;P2;SDS_P1;SDS_P2;PMS_P1;PMS_P2;Temp;Humidity;BMP_temperature;BMP_pressure;BME280_temperature;BME280_humidity;BME280_pressure;Samples;Min_cycle;Max_cycle;Signal;HPM_P1;HPM_P2
2022/04/04 06:08:04;;;;;;;;;;;4.90;99.90;;;;;;5075052;27;1421704;-49
2022/04/04 06:10:31;;;;;;;11.15;8.95;;;4.90;99.90;;;;;;5087239;28;19928;-51
2022/04/04 06:12:58;;;;;;;11.90;8.82;;;4.90;99.90;;;;;;5091573;28;20112;-53
2022/04/04 06:15:25;;;;;;;11.82;8.38;;;4.90;99.90;;;;;;5090224;28;20045;-49
2022/04/04 06:17:52;;;;;;;10.07;8.55;;;5.00;99.90;;;;;;5089235;28;20056;-48
2022/04/04 06:20:19;;;;;;;12.18;7.80;;;5.10;99.90;;;;;;5089861;28;20040;-49
2022/04/04 06:22:47;;;;;;;7.97;6.82;;;5.10;99.90;;;;;;5089807;28;20127;-51
2022/04/04 06:25:14;;;;;;;11.05;7.00;;;5.20;99.90;;;;;;5071507;28;20058;-49
2022/04/04 06:27:41;;;;;;;9.00;7.30;;;5.30;99.90;;;;;;5089739;28;20040;-50
2022/04/04 06:30:08;;;;;;;11.10;7.05;;;5.30;99.90;;;;;;5089831;28;20047;-50
2022/04/04 06:32:35;;;;;;;8.10;7.10;;;5.30;99.90;;;;;;5088602;28;20553;-47
2022/04/04 06:35:04;;;;;;;9.68;6.93;;;5.40;99.90;;;;;;5089830;28;20043;-45
2022/04/04 06:37:31;;;;;;;7.30;6.45;;;5.40;99.90;;;;;;5089671;28;20040;-49
2022/04/04 06:39:58;;;;;;;8.85;5.75;;;5.50;99.90;;;;;;5089679;28;20201;-47
2022/04/04 06:42:25;;;;;;;7.50;5.68;;;5.50;99.90;;;;;;5089321;28;20047;-48
2022/04/04 06:44:54;;;;;;;12.02;6.00;;;5.50;99.90;;;;;;5071125;28;20131;-49
2022/04/04 06:47:21;;;;;;;9.18;5.70;;;5.60;99.90;;;;;;5089460;28;20140;-47
2022/04/04 06:49:48;;;;;;;7.03;5.78;;;5.60;99.90;;;;;;5089336;28;20047;-50
2022/04/04 06:52:14;;;;;;;8.20;6.00;;;5.60;99.90;;;;;;5088601;28;20072;-48
2022/04/04 06:54:43;;;;;;;9.73;6.10;;;5.70;99.90;;;;;;5087441;28;20093;-48
2022/04/04 06:57:10;;;;;;;7.78;5.38;;;5.70;99.90;;;;;;5062829;28;20517;-48
2022/04/04 06:59:37;;;;;;;7.50;5.68;;;5.70;99.90;;;;;;5089135;28;20036;-48
2022/04/04 07:02:04;;;;;;;6.72;5.18;;;5.70;99.90;;;;;;5071075;28;20070;-50
2022/04/04 07:04:31;;;;;;;9.73;5.28;;;5.80;99.90;;;;;;5089033;28;20048;-55
2022/04/04 07:06:59;;;;;;;6.28;5.43;;;5.80;99.90;;;;;;5088725;28;20044;-51
2022/04/04 07:09:26;;;;;;;6.25;5.20;;;5.90;99.90;;;;;;5088337;28;20115;-52
2022/04/04 07:11:53;;;;;;;5.60;4.50;;;5.80;99.90;;;;;;5088903;28;20064;-49
2022/04/04 07:14:20;;;;;;;5.70;4.40;;;5.90;99.90;;;;;;5088746;28;20059;-46
2022/04/04 07:16:48;;;;;;;6.55;4.70;;;5.90;99.90;;;;;;5088900;28;20036;-50
2022/04/04 07:19:16;;;;;;;7.57;4.65;;;6.00;99.90;;;;;;5076481;28;20063;-53
2022/04/04 07:21:43;;;;;;;6.07;4.43;;;6.00;99.90;;;;;;5075149;28;20094;-52
2022/04/04 07:24:10;;;;;;;6.93;4.28;;;6.00;99.90;;;;;;5075165;28;20047;-51
2022/04/04 07:26:37;;;;;;;6.80;4.32;;;6.00;99.90;;;;;;5075190;28;20086;-52
2022/04/04 07:29:03;;;;;;;6.07;3.72;;;6.10;99.90;;;;;;5075160;28;20032;-51
2022/04/04 07:31:30;;;;;;;5.20;3.80;;;6.10;99.90;;;;;;5074977;28;20044;-46
2022/04/04 07:33:57;;;;;;;7.32;4.03;;;6.10;99.90;;;;;;5074965;28;20036;-49
2022/04/04 07:36:24;;;;;;;6.43;3.78;;;6.20;99.90;;;;;;5075844;28;20127;-50
2022/04/04 07:38:52;;;;;;;5.25;3.35;;;6.20;99.90;;;;;;5075093;28;20044;-48
2022/04/04 07:41:18;;;;;;;8.10;4.22;;;6.20;99.90;;;;;;5072845;28;20036;-47
2022/04/04 07:43:45;;;;;;;4.65;3.40;;;6.30;99.90;;;;;;5074904;28;20047;-47
2022/04/04 07:46:12;;;;;;;6.03;3.50;;;6.30;99.90;;;;;;5074566;28;20392;-45
2022/04/04 07:48:40;;;;;;;10.20;3.40;;;6.30;99.90;;;;;;5074742;28;20037;-50
2022/04/04 07:51:07;;;;;;;4.25;3.60;;;6.30;99.90;;;;;;5074579;28;20075;-47
2022/04/04 07:53:34;;;;;;;5.20;3.22;;;6.40;99.90;;;;;;5074685;28;20041;-51
2022/04/04 07:56:01;;;;;;;4.65;3.08;;;6.40;99.90;;;;;;5068293;28;20090;-50
2022/04/04 07:58:27;;;;;;;5.22;3.20;;;6.40;99.90;;;;;;5074200;28;20037;-49
2022/04/04 08:00:54;;;;;;;4.75;3.03;;;6.40;99.90;;;;;;5073406;28;20526;-47
2022/04/04 08:03:22;;;;;;;3.85;2.78;;;6.50;99.90;;;;;;5071779;28;20048;-44
2022/04/04 08:05:50;;;;;;;5.20;3.08;;;6.50;99.90;;;;;;5074529;28;20078;-49
2022/04/04 08:08:17;;;;;;;5.18;2.80;;;6.50;99.90;;;;;;5073087;28;20055;-50
2022/04/04 08:10:43;;;;;;;5.13;2.58;;;6.60;99.90;;;;;;5073393;28;20036;-54
2022/04/04 08:13:10;;;;;;;3.92;2.65;;;6.60;99.90;;;;;;5074426;28;20047;-45
2022/04/04 08:15:37;;;;;;;3.95;2.92;;;6.70;99.90;;;;;;5073715;28;20492;-50
2022/04/04 08:18:04;;;;;;;3.65;2.28;;;6.70;99.90;;;;;;5073869;28;20048;-50
2022/04/04 08:20:31;;;;;;;3.70;2.40;;;6.80;99.90;;;;;;5074278;28;20075;-49
2022/04/04 08:22:59;;;;;;;3.42;2.10;;;6.80;99.90;;;;;;5074294;28;20048;-47
2022/04/04 08:25:25;;;;;;;3.72;2.10;;;6.80;99.90;;;;;;5074155;28;20106;-53
2022/04/04 08:27:52;;;;;;;4.55;2.45;;;6.80;99.90;;;;;;5073966;28;20036;-47
2022/04/04 08:30:19;;;;;;;2.72;2.20;;;6.80;99.90;;;;;;5072865;28;20072;-53
2022/04/04 08:32:46;;;;;;;3.78;2.25;;;6.80;99.90;;;;;;5073949;28;20041;-46
2022/04/04 08:35:14;;;;;;;4.05;1.92;;;6.80;99.90;;;;;;5056219;28;20032;-48
2022/04/04 08:37:41;;;;;;;4.00;2.00;;;6.90;99.90;;;;;;5073724;28;20491;-49
2022/04/04 08:40:08;;;;;;;4.93;2.75;;;6.90;99.90;;;;;;5073846;28;20069;-48
2022/04/04 08:42:35;;;;;;;2.13;1.70;;;7.00;99.90;;;;;;5073544;28;20049;-49
2022/04/04 08:45:01;;;;;;;2.50;1.80;;;7.00;99.90;;;;;;5072432;28;20413;-48
2022/04/04 08:47:29;;;;;;;4.80;2.13;;;7.00;99.90;;;;;;5072130;28;20059;-50
2022/04/04 08:49:56;;;;;;;4.65;1.88;;;7.10;99.90;;;;;;5066451;28;20465;-48
2022/04/04 08:52:23;;;;;;;2.28;1.77;;;7.10;99.90;;;;;;5065912;28;20365;-53
2022/04/04 08:54:49;;;;;;;6.20;2.80;;;7.10;99.90;;;;;;5073547;28;20128;-50
2022/04/04 08:57:16;;;;;;;4.57;2.40;;;7.20;99.90;;;;;;5073445;28;20036;-46
2022/04/04 08:59:43;;;;;;;4.28;2.22;;;7.20;99.90;;;;;;5073748;28;20127;-45
2022/04/04 09:02:10;;;;;;;3.67;2.00;;;7.20;99.90;;;;;;5073603;28;20118;-47
2022/04/04 09:04:36;;;;;;;5.25;2.20;;;7.20;99.90;;;;;;5067399;28;20099;-47
2022/04/04 09:07:05;;;;;;;5.63;2.45;;;7.20;99.90;;;;;;5073135;28;20049;-49
2022/04/04 09:09:32;;;;;;;2.28;1.58;;;7.20;99.90;;;;;;5073047;28;20367;-47
2022/04/04 09:11:58;;;;;;;3.50;1.60;;;7.30;99.90;;;;;;5073002;28;20047;-52
2022/04/04 09:14:25;;;;;;;3.63;2.00;;;7.30;99.90;;;;;;5073280;28;20036;-47
2022/04/04 09:16:52;;;;;;;5.10;1.98;;;7.30;99.90;;;;;;5073278;28;20119;-51
2022/04/04 09:19:19;;;;;;;2.67;1.80;;;7.30;99.90;;;;;;5073100;28;20044;-46
2022/04/04 09:21:45;;;;;;;3.17;1.90;;;7.40;99.90;;;;;;5071927;28;20125;-51
2022/04/04 09:24:12;;;;;;;4.70;1.92;;;7.50;99.90;;;;;;5072811;28;20052;-50
2022/04/04 09:26:39;;;;;;;3.35;1.77;;;7.60;99.90;;;;;;5066726;28;20413;-50
2022/04/04 09:29:06;;;;;;;3.13;1.63;;;7.60;99.90;;;;;;5073213;28;20114;-53
2022/04/04 09:31:32;;;;;;;3.88;2.47;;;7.60;99.90;;;;;;5066472;28;20119;-50
2022/04/04 09:33:59;;;;;;;4.78;2.53;;;7.60;99.90;;;;;;5073321;28;20048;-49
2022/04/04 09:36:27;;;;;;;5.13;2.00;;;7.70;99.90;;;;;;5073013;28;20434;-49
2022/04/04 09:38:53;;;;;;;3.00;1.75;;;7.70;99.90;;;;;;5072480;28;20072;-52
2022/04/04 09:41:20;;;;;;;4.10;1.70;;;7.80;99.90;;;;;;5063328;28;20036;-49
2022/04/04 09:43:47;;;;;;;3.63;1.77;;;7.80;99.90;;;;;;5072839;28;20411;-46
2022/04/04 09:46:14;;;;;;;3.03;1.55;;;7.80;99.90;;;;;;5072606;28;20048;-53
2022/04/04 09:48:41;;;;;;;6.63;2.58;;;7.80;99.90;;;;;;5072278;28;20431;-49
2022/04/04 09:51:08;;;;;;;3.00;1.80;;;7.80;99.90;;;;;;5072442;28;20459;-46
2022/04/04 09:53:35;;;;;;;3.15;1.50;;;7.90;99.90;;;;;;5072752;28;20471;-55
2022/04/04 09:56:03;;;;;;;3.35;1.45;;;7.80;99.90;;;;;;5072574;28;20036;-51
2022/04/04 09:58:29;;;;;;;5.05;1.98;;;7.90;99.90;;;;;;5072506;28;20123;-49
2022/04/04 10:00:57;;;;;;;5.47;2.40;;;7.90;99.90;;;;;;5072650;28;20500;-50
2022/04/04 10:03:24;;;;;;;6.00;3.22;;;7.80;99.90;;;;;;5072574;28;20043;-51
2022/04/04 10:05:51;;;;;;;5.57;3.17;;;7.80;99.90;;;;;;5071292;28;20140;-49
2022/04/04 10:08:20;;;;;;;6.30;3.70;;;7.80;99.90;;;;;;5071102;28;20087;-48
2022/04/04 10:10:47;;;;;;;7.85;3.95;;;7.90;99.90;;;;;;5072201;28;20037;-52
2022/04/04 10:13:14;;;;;;;7.28;3.50;;;7.90;99.90;;;;;;5072430;28;20111;-50
2022/04/04 10:15:41;;;;;;;6.20;3.78;;;8.00;99.90;;;;;;5072479;28;20043;-51
2022/04/04 10:18:08;;;;;;;6.80;3.20;;;8.10;99.90;;;;;;5054651;28;20195;-46
2022/04/04 10:20:35;;;;;;;3.65;2.50;;;8.20;99.90;;;;;;5054296;28;20044;-48
2022/04/04 10:23:02;;;;;;;5.75;2.65;;;8.20;99.90;;;;;;5072396;28;20051;-51
2022/04/04 10:25:29;;;;;;;3.53;2.17;;;8.30;99.90;;;;;;5072344;28;20040;-52
2022/04/04 10:27:56;;;;;;;3.72;2.35;;;8.40;99.90;;;;;;5071806;28;20390;-52
2022/04/04 10:30:22;;;;;;;3.50;2.10;;;8.40;99.90;;;;;;5071878;28;20044;-50
2022/04/04 10:32:49;;;;;;;5.72;2.63;;;8.50;99.90;;;;;;5072412;28;20068;-51
2022/04/04 10:35:16;;;;;;;4.22;2.20;;;8.60;99.90;;;;;;5072663;28;20036;-48
2022/04/04 10:37:43;;;;;;;4.25;2.10;;;8.60;99.90;;;;;;5072591;28;20067;-53
2022/04/04 10:40:09;;;;;;;4.28;2.63;;;8.60;99.90;;;;;;5072475;28;20072;-52
2022/04/04 10:42:37;;;;;;;5.38;2.75;;;8.70;99.90;;;;;;5072483;28;20051;-52
2022/04/04 10:45:03;;;;;;;2.40;1.60;;;8.80;99.90;;;;;;5072563;28;20045;-55
2022/04/04 10:47:30;;;;;;;3.58;1.80;;;8.90;99.90;;;;;;5071819;28;20090;-51
2022/04/04 10:49:57;;;;;;;2.58;1.80;;;9.00;99.90;;;;;;5072059;28;20041;-49
2022/04/04 10:52:24;;;;;;;2.33;1.60;;;9.20;99.90;;;;;;5072154;28;20036;-50
2022/04/04 10:54:51;;;;;;;3.25;1.98;;;9.30;99.90;;;;;;5075629;28;20115;-53
2022/04/04 10:57:18;;;;;;;3.33;1.90;;;9.30;99.90;;;;;;5076143;28;20094;-52
2022/04/04 10:59:44;;;;;;;4.47;2.15;;;9.50;99.90;;;;;;5075707;28;20041;-51
2022/04/04 11:02:11;;;;;;;3.13;2.78;;;9.60;99.90;;;;;;5075727;28;20048;-51
2022/04/04 11:07:37;;;;;;;3.90;1.88;;;9.60;99.90;;;;;;5075889;28;20518;-54
2022/04/04 11:07:41;;;;;;;3.55;2.83;;;9.70;99.90;;;;;;5070221;28;20060;-49
2022/04/04 11:10:08;;;;;;;2.90;2.47;;;9.70;99.90;;;;;;5075395;28;20041;-54
2022/04/04 11:12:35;;;;;;;3.72;2.38;;;9.90;99.90;;;;;;5075846;28;20090;-53
2022/04/04 11:15:01;;;;;;;3.90;2.38;;;10.00;99.90;;;;;;5075912;28;20040;-48
2022/04/04 11:17:36;;;;;;;2.85;2.08;;;10.00;99.90;;;;;;5075863;28;20053;-51
2022/04/04 11:22:59;;;;;;;3.72;2.08;;;10.10;99.90;;;;;;5062920;28;20060;-54
2022/04/04 11:25:29;;;;;;;3.75;2.00;;;10.20;99.90;;;;;;5075731;28;20060;-55
2022/04/04 11:27:57;;;;;;;2.63;1.98;;;10.10;99.90;;;;;;5075044;28;20406;-54
2022/04/04 11:30:25;;;;;;;6.68;2.28;;;10.20;99.90;;;;;;5074667;28;20395;-51
2022/04/04 11:32:54;;;;;;;6.50;2.63;;;10.10;99.90;;;;;;5075647;28;20498;-51
2022/04/04 11:35:23;;;;;;;3.67;3.00;;;10.10;99.90;;;;;;5075681;28;20483;-54
2022/04/04 11:37:50;;;;;;;4.32;2.92;;;10.10;99.90;;;;;;5075557;28;20114;-47
2022/04/04 11:40:18;;;;;;;3.58;2.30;;;10.10;99.90;;;;;;5075438;28;20106;-51
2022/04/04 11:42:45;;;;;;;3.75;2.45;;;10.10;99.90;;;;;;5075522;28;20044;-52
2022/04/04 11:45:12;;;;;;;3.47;2.33;;;10.20;99.90;;;;;;5075385;28;20090;-50
2022/04/04 11:47:41;;;;;;;3.70;2.80;;;10.20;99.90;;;;;;5075179;28;20047;-52
2022/04/04 11:50:08;;;;;;;4.25;2.70;;;10.20;99.90;;;;;;5075067;28;20449;-52
2022/04/04 11:52:34;;;;;;;5.13;2.95;;;10.20;99.90;;;;;;5075197;28;20055;-54
2022/04/04 11:55:07;;;;;;;4.00;2.75;;;10.20;99.90;;;;;;5075163;28;20040;-53
2022/04/04 11:57:34;;;;;;;3.90;2.97;;;10.20;99.90;;;;;;5075084;28;20044;-54
2022/04/04 12:00:01;;;;;;;3.13;2.45;;;10.30;99.90;;;;;;5075103;28;20040;-49
2022/04/04 12:02:37;;;;;;;5.72;2.78;;;10.30;99.90;;;;;;5075104;28;20056;-51
2022/04/04 12:05:06;;;;;;;3.25;2.78;;;10.30;99.90;;;;;;5074905;28;20055;-51
2022/04/04 12:07:33;;;;;;;5.00;2.80;;;10.30;99.90;;;;;;5073666;28;20185;-49
2022/04/04 12:10:01;;;;;;;4.45;3.08;;;10.30;99.90;;;;;;5075052;28;20637;-47
2022/04/04 12:12:28;;;;;;;3.58;2.50;;;10.30;99.90;;;;;;5073651;28;20033;-54
2022/04/04 12:14:55;;;;;;;3.92;2.63;;;10.40;99.90;;;;;;5074914;28;20120;-52
2022/04/04 12:17:22;;;;;;;3.58;2.47;;;10.50;99.90;;;;;;5073737;28;20063;-54
2022/04/04 12:19:50;;;;;;;4.50;2.22;;;10.50;99.90;;;;;;5074446;28;20098;-54
2022/04/04 12:25:08;;;;;;;3.25;2.50;;;10.60;99.90;;;;;;5074608;28;20086;-51
2022/04/04 12:27:35;;;;;;;4.22;2.42;;;10.70;99.90;;;;;;5073298;28;20044;-53
2022/04/04 12:30:02;;;;;;;3.67;2.85;;;10.70;99.90;;;;;;5074326;28;20089;-51
2022/04/04 12:32:29;;;;;;;3.63;2.65;;;10.70;99.90;;;;;;5074315;28;20047;-54
2022/04/04 12:34:56;;;;;;;4.20;2.47;;;10.80;99.90;;;;;;5074414;28;20051;-54
2022/04/04 12:37:23;;;;;;;5.30;2.67;;;10.80;99.90;;;;;;5073313;28;20044;-53
2022/04/04 12:39:50;;;;;;;3.42;2.45;;;10.80;99.90;;;;;;5074300;28;20041;-53
2022/04/04 12:42:17;;;;;;;3.50;2.47;;;10.90;99.90;;;;;;5074077;28;20045;-52
2022/04/04 12:44:44;;;;;;;3.35;2.70;;;10.90;99.90;;;;;;5073535;28;20041;-48
2022/04/04 12:47:11;;;;;;;5.65;3.22;;;11.00;99.90;;;;;;5072869;28;20040;-54
2022/04/04 12:49:38;;;;;;;3.55;2.67;;;11.00;99.90;;;;;;5074068;28;20055;-50
2022/04/04 12:52:25;;;;;;;4.47;3.00;;;11.10;99.90;;;;;;5073843;28;20048;-52
2022/04/04 12:54:54;;;;;;;4.88;3.03;;;11.30;99.90;;;;;;5073970;28;20067;-52
2022/04/04 12:57:21;;;;;;;3.75;2.78;;;11.40;99.90;;;;;;5073909;28;20036;-54
2022/04/04 12:59:48;;;;;;;3.97;3.13;;;11.50;99.90;;;;;;5073770;28;20051;-51
2022/04/04 13:02:15;;;;;;;4.13;2.67;;;11.50;99.90;;;;;;5073869;28;20045;-51
2022/04/04 13:04:42;;;;;;;3.50;2.85;;;11.60;99.90;;;;;;5074296;28;20040;-52
2022/04/04 13:07:10;;;;;;;5.50;2.90;;;11.70;99.90;;;;;;5073544;28;20124;-52
2022/04/04 13:09:37;;;;;;;7.15;3.03;;;11.80;99.90;;;;;;5054975;28;20037;-51
2022/04/04 13:12:04;;;;;;;5.85;3.67;;;11.80;99.90;;;;;;5073902;28;20116;-53
2022/04/04 13:14:31;;;;;;;4.30;3.28;;;11.80;99.90;;;;;;5073930;28;20047;-49
2022/04/04 13:17:00;;;;;;;4.43;3.25;;;11.80;99.90;;;;;;5073104;28;20117;-49
2022/04/04 13:19:27;;;;;;;4.22;3.28;;;11.80;99.90;;;;;;5055607;28;20447;-51
2022/04/04 13:21:54;;;;;;;5.57;2.95;;;11.80;99.90;;;;;;5073397;28;20040;-48
2022/04/04 13:24:20;;;;;;;4.13;3.00;;;11.80;99.90;;;;;;5073294;28;20044;-52
2022/04/04 13:26:48;;;;;;;4.65;2.70;;;11.90;99.90;;;;;;5073386;28;20055;-53
2022/04/04 13:29:15;;;;;;;6.03;3.58;;;11.90;99.90;;;;;;5073189;28;20071;-54
2022/04/04 13:31:41;;;;;;;3.80;2.97;;;11.90;99.90;;;;;;5073530;28;20111;-48
2022/04/04 13:34:08;;;;;;;4.68;3.38;;;11.90;99.90;;;;;;5073168;28;20438;-51
2022/04/04 13:36:35;;;;;;;4.82;3.05;;;11.90;99.90;;;;;;5073388;28;20041;-49
2022/04/04 13:39:09;;;;;;;5.05;3.65;;;12.00;99.90;;;;;;5073158;28;20071;-50
2022/04/04 13:41:37;;;;;;;5.47;3.83;;;12.00;99.90;;;;;;5073128;28;20036;-50
2022/04/04 13:44:03;;;;;;;5.40;3.47;;;12.10;99.90;;;;;;5073156;28;20051;-50
2022/04/04 13:46:31;;;;;;;3.63;2.92;;;12.10;99.90;;;;;;5073007;28;20388;-50
2022/04/04 13:48:58;;;;;;;4.75;3.42;;;12.10;99.90;;;;;;5072924;28;20148;-47
2022/04/04 13:51:25;;;;;;;4.85;3.28;;;12.20;99.90;;;;;;5073095;28;20150;-52
2022/04/04 13:53:54;;;;;;;5.55;3.50;;;12.20;99.90;;;;;;5073341;28;20036;-55
2022/04/04 13:56:21;;;;;;;4.50;3.55;;;12.30;99.90;;;;;;5072893;28;20461;-53
2022/04/04 13:58:48;;;;;;;4.93;3.60;;;12.40;99.90;;;;;;5073181;28;20045;-55
2022/04/04 14:01:15;;;;;;;5.70;3.60;;;12.40;99.90;;;;;;5071784;28;20460;-52
2022/04/04 14:03:43;;;;;;;5.10;3.17;;;12.50;99.90;;;;;;5073073;28;20517;-51
2022/04/04 14:06:10;;;;;;;4.45;3.25;;;12.60;99.90;;;;;;5073090;28;20098;-51
2022/04/04 14:08:37;;;;;;;4.95;3.30;;;12.80;99.90;;;;;;5071910;28;20102;-51
2022/04/04 14:11:07;;;;;;;5.88;3.20;;;12.90;99.90;;;;;;5072861;28;20037;-53
2022/04/04 14:13:34;;;;;;;5.60;3.63;;;13.00;99.90;;;;;;5073617;28;20392;-53
2022/04/04 14:16:00;;;;;;;5.30;3.38;;;13.10;99.90;;;;;;5072895;28;20491;-56
2022/04/04 14:18:28;;;;;;;5.40;3.92;;;13.10;99.90;;;;;;5072812;28;20037;-49
2022/04/04 14:20:55;;;;;;;8.38;4.10;;;13.10;99.90;;;;;;5072902;28;20048;-49
2022/04/04 14:23:21;;;;;;;6.57;4.70;;;13.20;99.90;;;;;;5065044;28;20119;-51
2022/04/04 14:25:49;;;;;;;5.50;3.50;;;13.30;99.90;;;;;;5072691;28;20048;-51
2022/04/04 14:28:16;;;;;;;5.55;3.40;;;13.30;99.90;;;;;;5073796;28;20051;-51
2022/04/04 14:30:43;;;;;;;5.20;4.13;;;13.30;99.90;;;;;;5076676;28;20056;-50
2022/04/04 14:33:10;;;;;;;7.18;3.53;;;13.40;99.70;;;;;;5076927;28;20044;-49
2022/04/04 14:35:37;;;;;;;4.43;3.03;;;13.50;99.40;;;;;;5076919;28;20040;-47
2022/04/04 14:38:08;;;;;;;4.55;2.70;;;13.60;99.10;;;;;;5076768;28;20518;-51
2022/04/04 14:40:39;;;;;;;4.07;2.63;;;13.60;98.20;;;;;;5076540;28;20037;-53
2022/04/04 14:43:06;;;;;;;3.75;2.20;;;13.60;98.00;;;;;;5076394;28;20052;-49
2022/04/04 14:45:32;;;;;;;3.47;2.10;;;13.60;97.50;;;;;;5076210;28;20040;-55
2022/04/04 14:47:59;;;;;;;4.68;2.42;;;13.60;97.50;;;;;;5076566;28;20391;-51
2022/04/04 14:50:26;;;;;;;3.67;2.50;;;13.60;97.70;;;;;;5076186;28;20066;-51
2022/04/04 14:52:53;;;;;;;5.78;2.03;;;13.50;97.80;;;;;;5076669;28;20043;-49
2022/04/04 14:55:20;;;;;;;3.65;1.80;;;13.50;97.70;;;;;;5076599;28;20041;-50
2022/04/04 14:57:47;;;;;;;3.75;2.10;;;13.50;97.30;;;;;;5076299;28;20047;-51
2022/04/04 15:00:14;;;;;;;2.72;1.92;;;13.50;97.60;;;;;;5076282;28;20045;-54
2022/04/04 15:02:41;;;;;;;3.30;2.20;;;13.50;97.40;;;;;;5076075;28;20123;-53
2022/04/04 15:05:27;;;;;;;3.40;2.00;;;13.50;97.80;;;;;;5076060;28;20044;-50
2022/04/04 15:07:54;;;;;;;4.45;1.90;;;13.40;97.70;;;;;;5075725;28;20044;-52
2022/04/04 15:10:23;;;;;;;3.65;2.03;;;13.40;97.70;;;;;;5075072;28;20131;-51
2022/04/04 15:12:49;;;;;;;5.60;2.10;;;13.40;97.60;;;;;;5058131;28;20110;-47
2022/04/04 15:15:16;;;;;;;2.65;1.90;;;13.40;97.50;;;;;;5075098;28;20139;-52
2022/04/04 15:17:43;;;;;;;2.78;1.77;;;13.40;97.50;;;;;;5057885;28;20051;-51
2022/04/04 15:20:10;;;;;;;3.28;1.92;;;13.50;97.60;;;;;;5075586;28;20123;-48
2022/04/04 15:22:37;;;;;;;4.03;2.13;;;13.50;97.50;;;;;;5056554;28;20408;-51
2022/04/04 15:25:04;;;;;;;2.90;1.90;;;13.50;97.70;;;;;;5075652;28;20059;-48
2022/04/04 15:27:32;;;;;;;3.38;1.80;;;13.60;97.20;;;;;;5075661;28;20072;-52
2022/04/04 15:29:59;;;;;;;3.60;1.90;;;13.60;97.10;;;;;;5075356;28;20126;-51
2022/04/04 15:32:26;;;;;;;2.90;1.73;;;13.60;97.40;;;;;;5075657;28;20046;-51
2022/04/04 15:34:54;;;;;;;4.18;2.00;;;13.60;97.10;;;;;;5075830;28;20036;-52
2022/04/04 15:37:21;;;;;;;2.92;1.60;;;13.50;96.90;;;;;;5075390;28;20491;-50
2022/04/04 15:39:49;;;;;;;2.30;1.80;;;13.50;96.80;;;;;;5075005;28;20044;-51
2022/04/04 15:42:15;;;;;;;2.67;1.88;;;13.50;97.00;;;;;;5075432;28;20127;-52
2022/04/04 15:44:42;;;;;;;2.95;1.80;;;13.60;96.90;;;;;;5074621;28;20415;-48
2022/04/04 15:47:11;;;;;;;3.00;1.75;;;13.60;96.90;;;;;;5075440;28;20044;-54
2022/04/04 15:49:38;;;;;;;3.15;1.60;;;13.60;97.00;;;;;;5057371;28;20139;-51
2022/04/04 15:52:05;;;;;;;3.25;1.58;;;13.60;96.70;;;;;;5075195;28;20041;-49
2022/04/04 15:54:31;;;;;;;3.45;2.20;;;13.70;96.60;;;;;;5075239;28;20051;-51
2022/04/04 15:56:59;;;;;;;3.60;1.80;;;13.70;96.50;;;;;;5075264;28;20380;-52
2022/04/04 15:59:25;;;;;;;3.90;1.70;;;13.70;96.70;;;;;;5074923;28;20086;-52
2022/04/04 16:01:52;;;;;;;4.50;2.20;;;13.70;96.60;;;;;;5075109;28;20045;-50
2022/04/04 16:04:19;;;;;;;3.47;2.17;;;13.70;97.00;;;;;;5057310;28;20044;-51
2022/04/04 16:06:46;;;;;;;2.90;1.85;;;13.60;96.70;;;;;;5057008;28;20122;-52
2022/04/04 16:09:14;;;;;;;3.92;2.17;;;13.70;97.10;;;;;;5074204;28;20114;-52
2022/04/04 16:11:40;;;;;;;5.18;2.25;;;13.60;96.90;;;;;;5074910;28;20040;-51
2022/04/04 16:14:07;;;;;;;5.22;2.20;;;13.60;97.00;;;;;;5074849;28;20041;-52
2022/04/04 16:16:34;;;;;;;5.45;2.40;;;13.60;97.20;;;;;;5056235;28;20120;-53
2022/04/04 16:19:01;;;;;;;4.18;2.30;;;13.60;97.10;;;;;;5074620;28;20499;-49
2022/04/04 16:21:28;;;;;;;4.05;2.47;;;13.70;97.00;;;;;;5074730;28;20048;-50
2022/04/04 16:23:54;;;;;;;4.15;2.28;;;13.70;96.90;;;;;;5074629;28;20044;-49
2022/04/04 16:26:22;;;;;;;4.90;2.50;;;13.80;97.10;;;;;;5074600;28;20074;-52
2022/04/04 16:28:49;;;;;;;4.10;2.30;;;13.90;97.10;;;;;;5073727;28;20036;-50
2022/04/04 16:31:16;;;;;;;5.57;2.55;;;14.00;97.00;;;;;;5074504;28;20036;-50
2022/04/04 16:33:43;;;;;;;3.40;2.47;;;14.00;96.50;;;;;;5074322;28;20047;-51
2022/04/04 16:36:12;;;;;;;6.25;3.28;;;14.10;96.50;;;;;;5074608;28;20115;-51
2022/04/04 16:38:41;;;;;;;4.90;2.40;;;14.10;96.50;;;;;;5074452;28;20081;-52
2022/04/04 16:41:08;;;;;;;4.43;3.13;;;14.10;96.30;;;;;;5074285;28;20044;-53
2022/04/04 16:43:35;;;;;;;4.55;2.75;;;14.10;96.40;;;;;;5074216;28;20037;-50
2022/04/04 16:46:02;;;;;;;8.82;4.13;;;14.10;96.20;;;;;;5074135;28;20135;-52
2022/04/04 16:48:34;;;;;;;6.18;2.72;;;14.10;96.30;;;;;;5074071;28;20045;-50
2022/04/04 16:51:00;;;;;;;4.75;3.22;;;14.10;95.90;;;;;;5055560;28;20060;-53
2022/04/04 16:53:27;;;;;;;5.20;3.05;;;14.10;96.10;;;;;;5074133;28;20039;-48
2022/04/04 16:55:54;;;;;;;5.57;3.63;;;14.10;96.10;;;;;;5074187;28;20068;-52
2022/04/04 16:58:23;;;;;;;7.70;5.05;;;14.10;96.00;;;;;;5073985;28;20504;-49
2022/04/04 17:00:50;;;;;;;8.43;4.53;;;14.10;96.10;;;;;;5073855;28;20403;-52
2022/04/04 17:03:18;;;;;;;6.90;4.65;;;14.10;96.10;;;;;;5073989;28;20131;-52
2022/04/04 17:05:49;;;;;;;4.65;3.42;;;14.10;96.10;;;;;;5073815;28;20112;-54
2022/04/04 17:08:16;;;;;;;3.55;1.90;;;14.10;96.00;;;;;;5072718;28;20487;-53
2022/04/04 17:10:44;;;;;;;5.70;2.13;;;14.00;96.00;;;;;;5073636;28;20071;-50
2022/04/04 17:13:11;;;;;;;2.20;1.25;;;14.00;96.10;;;;;;5073724;28;20086;-49
2022/04/04 17:15:38;;;;;;;3.83;1.70;;;14.00;95.80;;;;;;5056137;28;20044;-51
2022/04/04 17:18:05;;;;;;;2.92;1.30;;;14.00;95.90;;;;;;5073759;28;20136;-53
2022/04/04 17:20:32;;;;;;;5.28;1.58;;;13.90;96.00;;;;;;5073662;28;20040;-51
2022/04/04 17:22:59;;;;;;;2.70;1.30;;;14.00;95.90;;;;;;5073420;28;20049;-43
2022/04/04 17:25:26;;;;;;;2.90;1.25;;;13.90;95.80;;;;;;5067844;28;20086;-51
2022/04/04 17:27:53;;;;;;;2.45;1.38;;;13.90;95.90;;;;;;5049300;28;20040;-52
2022/04/04 17:30:19;;;;;;;2.00;1.05;;;13.90;95.90;;;;;;5072407;28;20384;-48
2022/04/04 17:32:46;;;;;;;3.38;1.02;;;13.90;95.50;;;;;;5073449;28;20094;-49
2022/04/04 17:35:13;;;;;;;3.75;1.10;;;13.90;95.50;;;;;;5072379;28;20036;-52
2022/04/04 17:37:40;;;;;;;4.35;1.20;;;13.90;95.70;;;;;;5067030;28;20075;-52
2022/04/04 17:40:07;;;;;;;1.92;1.00;;;13.90;95.40;;;;;;5066588;28;20052;-56
2022/04/04 17:42:33;;;;;;;3.35;0.98;;;13.90;95.50;;;;;;5072542;28;20036;-56
2022/04/04 17:45:00;;;;;;;2.17;0.90;;;13.90;95.50;;;;;;5073402;28;20407;-51
2022/04/04 17:47:27;;;;;;;1.88;0.90;;;13.80;95.60;;;;;;5055275;28;20143;-54
2022/04/04 17:49:57;;;;;;;3.92;0.77;;;13.80;95.30;;;;;;5071408;28;20040;-52
2022/04/04 17:52:24;;;;;;;1.60;0.70;;;13.80;95.40;;;;;;5073089;28;20058;-55
2022/04/04 17:54:53;;;;;;;3.92;0.90;;;13.80;95.30;;;;;;5055678;28;20037;-51
2022/04/04 17:57:20;;;;;;;4.25;0.82;;;13.80;95.30;;;;;;5072752;28;20041;-52
2022/04/04 17:59:47;;;;;;;3.50;0.60;;;13.80;95.50;;;;;;5073008;28;20049;-51
2022/04/04 18:02:14;;;;;;;1.60;0.80;;;13.70;95.60;;;;;;5072857;28;20090;-49
2022/04/04 18:04:40;;;;;;;3.25;1.00;;;13.80;95.60;;;;;;5073133;28;20037;-48
2022/04/04 18:07:07;;;;;;;3.80;0.80;;;13.70;95.70;;;;;;5072613;28;20045;-52
2022/04/04 18:09:34;;;;;;;1.98;1.10;;;13.70;95.80;;;;;;5071817;28;20051;-51
2022/04/04 18:12:02;;;;;;;3.92;1.00;;;13.70;95.90;;;;;;5055061;28;20040;-51
2022/04/04 18:14:29;;;;;;;4.18;1.10;;;13.70;95.90;;;;;;5053978;28;20057;-52
2022/04/04 18:16:58;;;;;;;2.28;1.00;;;13.70;95.90;;;;;;5072828;28;20042;-55
2022/04/04 18:19:25;;;;;;;2.22;1.02;;;13.60;96.00;;;;;;5072996;28;20058;-52
2022/04/04 18:21:52;;;;;;;2.35;1.23;;;13.70;96.10;;;;;;5072878;28;20041;-53
2022/04/04 18:24:22;;;;;;;2.92;1.50;;;13.70;96.30;;;;;;5073084;28;20131;-56
2022/04/04 18:26:54;;;;;;;2.67;1.50;;;13.60;96.40;;;;;;5072707;28;20048;-53
2022/04/04 18:29:21;;;;;;;3.67;1.65;;;13.60;96.60;;;;;;5072775;28;20430;-54
2022/04/04 18:31:48;;;;;;;3.00;1.80;;;13.60;96.80;;;;;;5072957;28;20067;-47
2022/04/04 18:34:15;;;;;;;3.50;2.20;;;13.60;96.90;;;;;;5073456;28;20138;-53
2022/04/04 18:36:42;;;;;;;3.50;2.13;;;13.60;97.30;;;;;;5073053;28;20040;-54
2022/04/04 18:39:08;;;;;;;4.22;2.30;;;13.50;97.10;;;;;;5072813;28;20072;-57
2022/04/04 18:41:36;;;;;;;5.13;2.15;;;13.50;97.20;;;;;;5072652;28;20045;-49
2022/04/04 18:44:03;;;;;;;3.70;2.13;;;13.50;97.20;;;;;;5071525;28;20040;-50
2022/04/04 18:46:31;;;;;;;6.47;2.47;;;13.50;97.30;;;;;;5072694;28;20036;-55
2022/04/04 18:48:58;;;;;;;3.03;2.08;;;13.50;97.40;;;;;;5072728;28;20135;-52
2022/04/04 18:51:25;;;;;;;2.92;2.13;;;13.50;97.40;;;;;;5072437;28;20067;-51
2022/04/04 18:53:52;;;;;;;5.90;2.42;;;13.50;97.40;;;;;;5072550;28;20137;-52
2022/04/04 18:56:19;;;;;;;3.13;1.95;;;13.50;97.50;;;;;;5072530;28;20047;-49
2022/04/04 18:58:48;;;;;;;3.28;2.13;;;13.50;97.50;;;;;;5072650;28;20041;-51
2022/04/04 19:01:16;;;;;;;5.15;2.33;;;13.40;97.60;;;;;;5072280;28;20064;-51
2022/04/04 19:03:43;;;;;;;4.25;2.20;;;13.50;97.60;;;;;;5072385;28;20044;-53